sensor_id;sensor_type;location;lat;lon;timestamp;P1;durP1;ratioP1;P2;durP2;ratioP2
50010;SDS011;35899;50.352;19.390;2022-12-07T00:01:21;72.20;;;30.95;;
50010;SDS011;35899;50.352;19.390;2022-12-07T00:03:54;75.95;;;31.82;;
50010;SDS011;35899;50.352;19.390;2022-12-07T00:06:22;66.00;;;27.65;;
50010;SDS011;35899;50.352;19.390;2022-12-07T00:08:52;70.62;;;28.65;;
50010;SDS011;35899;50.352;19.390;2022-12-07T00:11:20;72.55;;;30.15;;
50010;SDS011;35899;50.352;19.390;2022-12-07T00:13:51;76.57;;;29.70;;
50010;SDS011;35899;50.352;19.390;2022-12-07T00:16:22;84.37;;;32.70;;
50010;SDS011;35899;50.352;19.390;2022-12-07T00:18:51;75.62;;;31.90;;
50010;SDS011;35899;50.352;19.390;2022-12-07T00:21:23;75.83;;;30.08;;
50010;SDS011;35899;50.352;19.390;2022-12-07T00:23:52;70.92;;;28.75;;
50010;SDS011;35899;50.352;19.390;2022-12-07T00:26:21;64.03;;;26.62;;
50010;SDS011;35899;50.352;19.390;2022-12-07T00:28:54;86.87;;;34.45;;
50010;SDS011;35899;50.352;19.390;2022-12-07T00:31:24;80.77;;;32.85;;
50010;SDS011;35899;50.352;19.390;2022-12-07T00:33:53;75.25;;;32.70;;
50010;SDS011;35899;50.352;19.390;2022-12-07T00:36:20;72.40;;;31.52;;
50010;SDS011;35899;50.352;19.390;2022-12-07T00:38:49;78.50;;;33.98;;
50010;SDS011;35899;50.352;19.390;2022-12-07T00:41:16;77.47;;;33.73;;
50010;SDS011;35899;50.352;19.390;2022-12-07T00:43:46;56.80;;;24.85;;
50010;SDS011;35899;50.352;19.390;2022-12-07T00:46:14;68.97;;;30.75;;
50010;SDS011;35899;50.352;19.390;2022-12-07T00:48:42;69.05;;;29.85;;
50010;SDS011;35899;50.352;19.390;2022-12-07T00:51:09;67.17;;;30.30;;
50010;SDS011;35899;50.352;19.390;2022-12-07T00:53:38;57.20;;;26.70;;
50010;SDS011;35899;50.352;19.390;2022-12-07T00:56:11;64.85;;;27.58;;
50010;SDS011;35899;50.352;19.390;2022-12-07T00:58:39;61.85;;;27.55;;
50010;SDS011;35899;50.352;19.390;2022-12-07T01:01:07;61.45;;;28.75;;
50010;SDS011;35899;50.352;19.390;2022-12-07T01:03:35;54.93;;;24.07;;
50010;SDS011;35899;50.352;19.390;2022-12-07T01:06:02;56.83;;;25.08;;
50010;SDS011;35899;50.352;19.390;2022-12-07T01:08:29;50.45;;;22.20;;
50010;SDS011;35899;50.352;19.390;2022-12-07T01:11:00;55.95;;;25.52;;
50010;SDS011;35899;50.352;19.390;2022-12-07T01:13:33;48.80;;;23.00;;
50010;SDS011;35899;50.352;19.390;2022-12-07T01:16:01;44.95;;;22.42;;
50010;SDS011;35899;50.352;19.390;2022-12-07T01:18:31;44.30;;;20.85;;
50010;SDS011;35899;50.352;19.390;2022-12-07T01:21:06;49.35;;;22.95;;
50010;SDS011;35899;50.352;19.390;2022-12-07T01:23:37;52.20;;;24.72;;
50010;SDS011;35899;50.352;19.390;2022-12-07T01:26:05;48.68;;;21.90;;
50010;SDS011;35899;50.352;19.390;2022-12-07T01:28:35;49.55;;;22.22;;
50010;SDS011;35899;50.352;19.390;2022-12-07T01:31:06;47.23;;;22.60;;
50010;SDS011;35899;50.352;19.390;2022-12-07T01:33:36;39.38;;;18.80;;
50010;SDS011;35899;50.352;19.390;2022-12-07T01:36:04;43.23;;;19.62;;
50010;SDS011;35899;50.352;19.390;2022-12-07T01:38:33;45.88;;;21.12;;
50010;SDS011;35899;50.352;19.390;2022-12-07T01:41:00;43.15;;;20.00;;
50010;SDS011;35899;50.352;19.390;2022-12-07T01:43:28;45.10;;;21.55;;
50010;SDS011;35899;50.352;19.390;2022-12-07T01:45:56;45.80;;;21.05;;
50010;SDS011;35899;50.352;19.390;2022-12-07T01:48:27;47.30;;;21.40;;
50010;SDS011;35899;50.352;19.390;2022-12-07T01:51:03;73.00;;;30.90;;
50010;SDS011;35899;50.352;19.390;2022-12-07T01:53:32;67.75;;;28.60;;
50010;SDS011;35899;50.352;19.390;2022-12-07T01:56:02;53.90;;;23.30;;
50010;SDS011;35899;50.352;19.390;2022-12-07T01:58:28;59.27;;;24.47;;
50010;SDS011;35899;50.352;19.390;2022-12-07T02:03:32;107.80;;;33.20;;
50010;SDS011;35899;50.352;19.390;2022-12-07T02:06:02;68.00;;;26.57;;
50010;SDS011;35899;50.352;19.390;2022-12-07T02:08:30;72.92;;;26.15;;
50010;SDS011;35899;50.352;19.390;2022-12-07T02:10:59;56.55;;;24.55;;
50010;SDS011;35899;50.352;19.390;2022-12-07T02:13:28;57.43;;;24.05;;
50010;SDS011;35899;50.352;19.390;2022-12-07T02:27:46;52.05;;;21.55;;
50010;SDS011;35899;50.352;19.390;2022-12-07T02:30:29;53.10;;;22.55;;
50010;SDS011;35899;50.352;19.390;2022-12-07T02:33:12;49.98;;;20.75;;
50010;SDS011;35899;50.352;19.390;2022-12-07T02:36:06;59.48;;;22.37;;
50010;SDS011;35899;50.352;19.390;2022-12-07T02:38:45;57.60;;;23.62;;
50010;SDS011;35899;50.352;19.390;2022-12-07T02:41:22;48.45;;;21.45;;
50010;SDS011;35899;50.352;19.390;2022-12-07T02:44:00;54.13;;;22.37;;
50010;SDS011;35899;50.352;19.390;2022-12-07T02:46:32;74.32;;;26.57;;
50010;SDS011;35899;50.352;19.390;2022-12-07T02:49:08;62.50;;;23.62;;
50010;SDS011;35899;50.352;19.390;2022-12-07T02:51:38;50.17;;;20.75;;
50010;SDS011;35899;50.352;19.390;2022-12-07T02:54:19;49.48;;;20.02;;
50010;SDS011;35899;50.352;19.390;2022-12-07T03:11:40;41.35;;;17.30;;
50010;SDS011;35899;50.352;19.390;2022-12-07T03:14:19;39.20;;;16.30;;
50010;SDS011;35899;50.352;19.390;2022-12-07T03:16:53;40.90;;;18.07;;
50010;SDS011;35899;50.352;19.390;2022-12-07T03:19:19;57.90;;;21.70;;
50010;SDS011;35899;50.352;19.390;2022-12-07T03:21:53;43.48;;;17.40;;
50010;SDS011;35899;50.352;19.390;2022-12-07T03:24:24;45.78;;;19.12;;
50010;SDS011;35899;50.352;19.390;2022-12-07T03:26:56;45.63;;;18.67;;
50010;SDS011;35899;50.352;19.390;2022-12-07T03:29:30;55.43;;;20.62;;
50010;SDS011;35899;50.352;19.390;2022-12-07T03:32:16;50.80;;;19.30;;
50010;SDS011;35899;50.352;19.390;2022-12-07T03:42:40;51.48;;;19.55;;
50010;SDS011;35899;50.352;19.390;2022-12-07T03:45:07;47.08;;;18.35;;
50010;SDS011;35899;50.352;19.390;2022-12-07T03:53:05;45.25;;;18.45;;
50010;SDS011;35899;50.352;19.390;2022-12-07T03:55:38;45.15;;;19.05;;
50010;SDS011;35899;50.352;19.390;2022-12-07T03:58:10;52.80;;;19.20;;
50010;SDS011;35899;50.352;19.390;2022-12-07T04:00:40;41.92;;;18.17;;
50010;SDS011;35899;50.352;19.390;2022-12-07T04:03:07;43.17;;;18.17;;
50010;SDS011;35899;50.352;19.390;2022-12-07T04:05:34;38.02;;;16.82;;
50010;SDS011;35899;50.352;19.390;2022-12-07T04:08:01;39.75;;;17.85;;
50010;SDS011;35899;50.352;19.390;2022-12-07T04:10:27;46.23;;;19.73;;
50010;SDS011;35899;50.352;19.390;2022-12-07T04:12:54;42.90;;;18.25;;
50010;SDS011;35899;50.352;19.390;2022-12-07T04:15:21;64.12;;;23.18;;
50010;SDS011;35899;50.352;19.390;2022-12-07T04:17:48;44.33;;;18.55;;
50010;SDS011;35899;50.352;19.390;2022-12-07T04:20:14;41.42;;;18.52;;
50010;SDS011;35899;50.352;19.390;2022-12-07T04:22:41;44.63;;;19.00;;
50010;SDS011;35899;50.352;19.390;2022-12-07T04:25:07;45.90;;;20.65;;
50010;SDS011;35899;50.352;19.390;2022-12-07T04:27:34;55.30;;;22.60;;
50010;SDS011;35899;50.352;19.390;2022-12-07T04:30:00;51.63;;;22.42;;
50010;SDS011;35899;50.352;19.390;2022-12-07T04:32:27;50.45;;;21.10;;
50010;SDS011;35899;50.352;19.390;2022-12-07T04:34:53;54.80;;;23.40;;
50010;SDS011;35899;50.352;19.390;2022-12-07T04:37:20;53.60;;;23.32;;
50010;SDS011;35899;50.352;19.390;2022-12-07T04:39:46;65.85;;;25.72;;
50010;SDS011;35899;50.352;19.390;2022-12-07T04:42:13;82.45;;;30.82;;
50010;SDS011;35899;50.352;19.390;2022-12-07T04:44:39;82.00;;;32.00;;
50010;SDS011;35899;50.352;19.390;2022-12-07T04:47:06;77.72;;;31.37;;
50010;SDS011;35899;50.352;19.390;2022-12-07T04:49:32;67.95;;;27.75;;
50010;SDS011;35899;50.352;19.390;2022-12-07T04:51:59;59.25;;;26.17;;
50010;SDS011;35899;50.352;19.390;2022-12-07T04:54:29;47.35;;;21.35;;
50010;SDS011;35899;50.352;19.390;2022-12-07T04:56:55;52.40;;;22.77;;
50010;SDS011;35899;50.352;19.390;2022-12-07T04:59:22;56.42;;;24.55;;
50010;SDS011;35899;50.352;19.390;2022-12-07T05:01:48;54.18;;;22.73;;
50010;SDS011;35899;50.352;19.390;2022-12-07T05:04:14;60.40;;;24.35;;
50010;SDS011;35899;50.352;19.390;2022-12-07T05:06:41;47.00;;;18.42;;
50010;SDS011;35899;50.352;19.390;2022-12-07T05:09:07;45.45;;;20.02;;
50010;SDS011;35899;50.352;19.390;2022-12-07T05:11:34;43.63;;;19.55;;
50010;SDS011;35899;50.352;19.390;2022-12-07T05:14:01;44.38;;;18.80;;
50010;SDS011;35899;50.352;19.390;2022-12-07T05:16:29;56.75;;;20.72;;
50010;SDS011;35899;50.352;19.390;2022-12-07T05:18:55;42.23;;;17.02;;
50010;SDS011;35899;50.352;19.390;2022-12-07T05:21:22;38.40;;;16.73;;
50010;SDS011;35899;50.352;19.390;2022-12-07T05:23:48;43.35;;;16.10;;
50010;SDS011;35899;50.352;19.390;2022-12-07T05:26:14;49.30;;;18.62;;
50010;SDS011;35899;50.352;19.390;2022-12-07T05:28:41;38.65;;;15.70;;
50010;SDS011;35899;50.352;19.390;2022-12-07T05:31:08;37.20;;;15.48;;
50010;SDS011;35899;50.352;19.390;2022-12-07T05:33:34;41.98;;;16.97;;
50010;SDS011;35899;50.352;19.390;2022-12-07T05:36:01;40.67;;;16.73;;
50010;SDS011;35899;50.352;19.390;2022-12-07T05:38:27;35.33;;;14.40;;
50010;SDS011;35899;50.352;19.390;2022-12-07T05:40:53;39.45;;;15.85;;
50010;SDS011;35899;50.352;19.390;2022-12-07T05:43:19;31.00;;;13.88;;
50010;SDS011;35899;50.352;19.390;2022-12-07T05:45:46;32.05;;;13.38;;
50010;SDS011;35899;50.352;19.390;2022-12-07T05:48:12;30.62;;;13.72;;
50010;SDS011;35899;50.352;19.390;2022-12-07T05:50:39;30.60;;;13.90;;
50010;SDS011;35899;50.352;19.390;2022-12-07T05:53:05;28.07;;;12.43;;
50010;SDS011;35899;50.352;19.390;2022-12-07T05:55:31;30.88;;;14.03;;
50010;SDS011;35899;50.352;19.390;2022-12-07T05:57:58;34.00;;;13.98;;
50010;SDS011;35899;50.352;19.390;2022-12-07T06:00:24;29.48;;;14.45;;
50010;SDS011;35899;50.352;19.390;2022-12-07T06:02:51;35.23;;;13.78;;
50010;SDS011;35899;50.352;19.390;2022-12-07T06:05:17;39.67;;;15.43;;
50010;SDS011;35899;50.352;19.390;2022-12-07T06:07:43;39.78;;;16.05;;
50010;SDS011;35899;50.352;19.390;2022-12-07T06:10:10;41.80;;;16.90;;
50010;SDS011;35899;50.352;19.390;2022-12-07T06:12:36;40.95;;;16.52;;
50010;SDS011;35899;50.352;19.390;2022-12-07T06:15:03;30.27;;;13.28;;
50010;SDS011;35899;50.352;19.390;2022-12-07T06:17:30;37.03;;;15.03;;
50010;SDS011;35899;50.352;19.390;2022-12-07T06:19:57;37.55;;;14.33;;
50010;SDS011;35899;50.352;19.390;2022-12-07T06:22:23;39.53;;;16.37;;
50010;SDS011;35899;50.352;19.390;2022-12-07T06:24:50;42.20;;;17.25;;
50010;SDS011;35899;50.352;19.390;2022-12-07T06:27:16;38.73;;;16.17;;
50010;SDS011;35899;50.352;19.390;2022-12-07T06:29:43;40.67;;;16.40;;
50010;SDS011;35899;50.352;19.390;2022-12-07T06:32:09;35.78;;;13.25;;
50010;SDS011;35899;50.352;19.390;2022-12-07T06:34:39;37.40;;;14.28;;
50010;SDS011;35899;50.352;19.390;2022-12-07T06:37:05;107.67;;;28.62;;
50010;SDS011;35899;50.352;19.390;2022-12-07T06:39:32;40.52;;;15.53;;
50010;SDS011;35899;50.352;19.390;2022-12-07T06:41:58;57.45;;;20.08;;
50010;SDS011;35899;50.352;19.390;2022-12-07T06:44:25;42.85;;;16.37;;
50010;SDS011;35899;50.352;19.390;2022-12-07T06:46:52;40.10;;;15.98;;
50010;SDS011;35899;50.352;19.390;2022-12-07T06:49:19;46.63;;;18.60;;
50010;SDS011;35899;50.352;19.390;2022-12-07T06:51:45;52.30;;;19.30;;
50010;SDS011;35899;50.352;19.390;2022-12-07T06:54:13;41.37;;;16.93;;
50010;SDS011;35899;50.352;19.390;2022-12-07T06:56:41;37.42;;;16.00;;
50010;SDS011;35899;50.352;19.390;2022-12-07T06:59:08;37.50;;;15.18;;
50010;SDS011;35899;50.352;19.390;2022-12-07T07:01:34;37.13;;;16.67;;
50010;SDS011;35899;50.352;19.390;2022-12-07T07:04:02;38.28;;;16.97;;
50010;SDS011;35899;50.352;19.390;2022-12-07T07:06:29;38.83;;;15.53;;
50010;SDS011;35899;50.352;19.390;2022-12-07T07:08:55;30.57;;;14.75;;
50010;SDS011;35899;50.352;19.390;2022-12-07T07:11:22;28.92;;;13.68;;
50010;SDS011;35899;50.352;19.390;2022-12-07T07:13:48;34.80;;;14.60;;
50010;SDS011;35899;50.352;19.390;2022-12-07T07:16:15;33.20;;;14.90;;
50010;SDS011;35899;50.352;19.390;2022-12-07T07:18:41;46.92;;;17.92;;
50010;SDS011;35899;50.352;19.390;2022-12-07T07:21:07;27.32;;;11.80;;
50010;SDS011;35899;50.352;19.390;2022-12-07T07:23:34;31.12;;;14.45;;
50010;SDS011;35899;50.352;19.390;2022-12-07T07:26:00;45.45;;;19.10;;
50010;SDS011;35899;50.352;19.390;2022-12-07T07:28:27;36.13;;;16.50;;
50010;SDS011;35899;50.352;19.390;2022-12-07T07:30:54;56.05;;;22.05;;
50010;SDS011;35899;50.352;19.390;2022-12-07T07:33:20;40.55;;;18.10;;
50010;SDS011;35899;50.352;19.390;2022-12-07T07:35:47;33.85;;;15.00;;
50010;SDS011;35899;50.352;19.390;2022-12-07T07:38:13;46.88;;;19.27;;
50010;SDS011;35899;50.352;19.390;2022-12-07T07:40:40;50.35;;;21.62;;
50010;SDS011;35899;50.352;19.390;2022-12-07T07:43:07;51.98;;;22.10;;
50010;SDS011;35899;50.352;19.390;2022-12-07T07:45:33;52.83;;;22.45;;
50010;SDS011;35899;50.352;19.390;2022-12-07T07:48:00;49.53;;;21.85;;
50010;SDS011;35899;50.352;19.390;2022-12-07T07:50:26;55.38;;;23.80;;
50010;SDS011;35899;50.352;19.390;2022-12-07T07:52:52;62.25;;;25.17;;
50010;SDS011;35899;50.352;19.390;2022-12-07T07:55:19;58.92;;;25.25;;
50010;SDS011;35899;50.352;19.390;2022-12-07T07:57:45;63.87;;;25.35;;
50010;SDS011;35899;50.352;19.390;2022-12-07T08:00:12;52.35;;;21.97;;
50010;SDS011;35899;50.352;19.390;2022-12-07T08:02:41;46.05;;;20.02;;
50010;SDS011;35899;50.352;19.390;2022-12-07T08:05:08;47.45;;;21.23;;
50010;SDS011;35899;50.352;19.390;2022-12-07T08:07:36;54.18;;;24.47;;
50010;SDS011;35899;50.352;19.390;2022-12-07T08:10:03;52.98;;;22.05;;
50010;SDS011;35899;50.352;19.390;2022-12-07T08:12:34;51.10;;;21.50;;
50010;SDS011;35899;50.352;19.390;2022-12-07T08:15:04;49.03;;;22.10;;
50010;SDS011;35899;50.352;19.390;2022-12-07T08:17:32;48.05;;;21.00;;
50010;SDS011;35899;50.352;19.390;2022-12-07T08:19:58;42.95;;;19.32;;
50010;SDS011;35899;50.352;19.390;2022-12-07T08:22:25;64.53;;;25.23;;
50010;SDS011;35899;50.352;19.390;2022-12-07T08:24:51;45.85;;;21.70;;
50010;SDS011;35899;50.352;19.390;2022-12-07T08:27:18;55.08;;;23.18;;
50010;SDS011;35899;50.352;19.390;2022-12-07T08:29:44;44.77;;;20.97;;
50010;SDS011;35899;50.352;19.390;2022-12-07T08:32:11;34.18;;;17.62;;
50010;SDS011;35899;50.352;19.390;2022-12-07T08:34:37;44.48;;;19.90;;
50010;SDS011;35899;50.352;19.390;2022-12-07T08:37:04;44.33;;;20.77;;
50010;SDS011;35899;50.352;19.390;2022-12-07T08:39:30;38.58;;;18.45;;
50010;SDS011;35899;50.352;19.390;2022-12-07T08:41:57;38.53;;;19.00;;
50010;SDS011;35899;50.352;19.390;2022-12-07T08:44:23;39.67;;;18.60;;
50010;SDS011;35899;50.352;19.390;2022-12-07T08:46:51;39.53;;;17.92;;
50010;SDS011;35899;50.352;19.390;2022-12-07T08:49:26;36.55;;;17.42;;
50010;SDS011;35899;50.352;19.390;2022-12-07T08:51:53;36.75;;;17.85;;
50010;SDS011;35899;50.352;19.390;2022-12-07T08:54:21;32.93;;;16.10;;
50010;SDS011;35899;50.352;19.390;2022-12-07T08:56:48;41.33;;;18.12;;
50010;SDS011;35899;50.352;19.390;2022-12-07T08:59:16;36.53;;;17.17;;
50010;SDS011;35899;50.352;19.390;2022-12-07T09:01:44;38.55;;;18.15;;
50010;SDS011;35899;50.352;19.390;2022-12-07T09:04:10;37.48;;;17.75;;
50010;SDS011;35899;50.352;19.390;2022-12-07T09:06:37;38.15;;;17.98;;
50010;SDS011;35899;50.352;19.390;2022-12-07T09:09:04;33.10;;;16.60;;
50010;SDS011;35899;50.352;19.390;2022-12-07T09:11:32;33.38;;;16.50;;
50010;SDS011;35899;50.352;19.390;2022-12-07T09:13:59;30.23;;;14.80;;
50010;SDS011;35899;50.352;19.390;2022-12-07T09:16:25;30.50;;;15.93;;
50010;SDS011;35899;50.352;19.390;2022-12-07T09:18:51;35.23;;;16.75;;
50010;SDS011;35899;50.352;19.390;2022-12-07T09:21:18;31.87;;;14.98;;
50010;SDS011;35899;50.352;19.390;2022-12-07T09:23:44;33.35;;;15.78;;
50010;SDS011;35899;50.352;19.390;2022-12-07T09:26:11;32.73;;;15.68;;
50010;SDS011;35899;50.352;19.390;2022-12-07T09:28:37;29.63;;;15.63;;
50010;SDS011;35899;50.352;19.390;2022-12-07T09:31:04;23.18;;;12.40;;
50010;SDS011;35899;50.352;19.390;2022-12-07T09:33:31;28.40;;;15.32;;
50010;SDS011;35899;50.352;19.390;2022-12-07T09:35:58;27.75;;;14.63;;
50010;SDS011;35899;50.352;19.390;2022-12-07T09:38:24;27.25;;;14.40;;
50010;SDS011;35899;50.352;19.390;2022-12-07T09:40:51;30.15;;;14.90;;
50010;SDS011;35899;50.352;19.390;2022-12-07T09:43:22;33.02;;;15.80;;
50010;SDS011;35899;50.352;19.390;2022-12-07T09:45:51;27.37;;;13.58;;
50010;SDS011;35899;50.352;19.390;2022-12-07T09:48:30;24.37;;;12.65;;
50010;SDS011;35899;50.352;19.390;2022-12-07T09:51:00;28.38;;;15.13;;
50010;SDS011;35899;50.352;19.390;2022-12-07T09:53:28;30.45;;;16.67;;
50010;SDS011;35899;50.352;19.390;2022-12-07T09:56:03;32.17;;;16.25;;
50010;SDS011;35899;50.352;19.390;2022-12-07T09:58:31;37.83;;;18.20;;
50010;SDS011;35899;50.352;19.390;2022-12-07T10:01:00;43.90;;;20.82;;
50010;SDS011;35899;50.352;19.390;2022-12-07T10:03:48;45.17;;;20.90;;
50010;SDS011;35899;50.352;19.390;2022-12-07T10:06:20;51.02;;;23.80;;
50010;SDS011;35899;50.352;19.390;2022-12-07T10:08:46;74.85;;;30.52;;
50010;SDS011;35899;50.352;19.390;2022-12-07T10:11:14;55.83;;;25.10;;
50010;SDS011;35899;50.352;19.390;2022-12-07T10:13:42;104.67;;;34.55;;
50010;SDS011;35899;50.352;19.390;2022-12-07T10:16:45;114.50;;;40.30;;
50010;SDS011;35899;50.352;19.390;2022-12-07T10:19:21;66.80;;;29.42;;
50010;SDS011;35899;50.352;19.390;2022-12-07T10:22:11;95.40;;;33.75;;
50010;SDS011;35899;50.352;19.390;2022-12-07T10:24:41;72.25;;;28.40;;
50010;SDS011;35899;50.352;19.390;2022-12-07T10:27:30;67.92;;;29.57;;
50010;SDS011;35899;50.352;19.390;2022-12-07T10:29:58;88.87;;;31.85;;
50010;SDS011;35899;50.352;19.390;2022-12-07T10:32:28;132.72;;;41.85;;
50010;SDS011;35899;50.352;19.390;2022-12-07T10:37:51;83.60;;;32.20;;
50010;SDS011;35899;50.352;19.390;2022-12-07T10:40:30;49.95;;;25.20;;
50010;SDS011;35899;50.352;19.390;2022-12-07T10:43:04;49.70;;;25.27;;
50010;SDS011;35899;50.352;19.390;2022-12-07T10:48:45;67.47;;;27.45;;
50010;SDS011;35899;50.352;19.390;2022-12-07T10:51:31;70.95;;;30.75;;
50010;SDS011;35899;50.352;19.390;2022-12-07T11:00:20;49.50;;;26.52;;
50010;SDS011;35899;50.352;19.390;2022-12-07T11:05:49;60.58;;;27.73;;
50010;SDS011;35899;50.352;19.390;2022-12-07T11:22:39;56.13;;;24.43;;
50010;SDS011;35899;50.352;19.390;2022-12-07T11:25:21;45.75;;;23.52;;
50010;SDS011;35899;50.352;19.390;2022-12-07T11:28:00;43.68;;;22.52;;
50010;SDS011;35899;50.352;19.390;2022-12-07T11:42:29;40.35;;;22.60;;
50010;SDS011;35899;50.352;19.390;2022-12-07T11:44:56;44.10;;;24.02;;
50010;SDS011;35899;50.352;19.390;2022-12-07T11:47:45;48.48;;;24.75;;
50010;SDS011;35899;50.352;19.390;2022-12-07T12:01:24;47.88;;;23.20;;
50010;SDS011;35899;50.352;19.390;2022-12-07T12:07:00;32.90;;;17.52;;
50010;SDS011;35899;50.352;19.390;2022-12-07T12:09:32;33.98;;;18.87;;
50010;SDS011;35899;50.352;19.390;2022-12-07T12:15:28;30.30;;;17.23;;
50010;SDS011;35899;50.352;19.390;2022-12-07T12:20:45;36.58;;;19.10;;
50010;SDS011;35899;50.352;19.390;2022-12-07T12:23:19;30.15;;;17.77;;
50010;SDS011;35899;50.352;19.390;2022-12-07T12:25:57;32.17;;;17.30;;
50010;SDS011;35899;50.352;19.390;2022-12-07T12:28:35;34.73;;;19.65;;
50010;SDS011;35899;50.352;19.390;2022-12-07T12:33:55;36.48;;;19.17;;
50010;SDS011;35899;50.352;19.390;2022-12-07T12:39:14;30.50;;;19.13;;
50010;SDS011;35899;50.352;19.390;2022-12-07T12:46:55;44.27;;;22.00;;
50010;SDS011;35899;50.352;19.390;2022-12-07T12:49:37;34.30;;;19.40;;
50010;SDS011;35899;50.352;19.390;2022-12-07T12:57:38;37.55;;;19.42;;
50010;SDS011;35899;50.352;19.390;2022-12-07T13:00:21;36.30;;;19.27;;
50010;SDS011;35899;50.352;19.390;2022-12-07T13:05:23;29.82;;;16.80;;
50010;SDS011;35899;50.352;19.390;2022-12-07T13:10:35;32.70;;;18.27;;
50010;SDS011;35899;50.352;19.390;2022-12-07T13:15:47;31.17;;;16.30;;
50010;SDS011;35899;50.352;19.390;2022-12-07T13:26:20;28.83;;;17.00;;
50010;SDS011;35899;50.352;19.390;2022-12-07T13:31:40;25.02;;;14.45;;
50010;SDS011;35899;50.352;19.390;2022-12-07T13:39:52;25.92;;;15.70;;
50010;SDS011;35899;50.352;19.390;2022-12-07T13:42:29;25.62;;;14.93;;
50010;SDS011;35899;50.352;19.390;2022-12-07T13:44:59;27.37;;;17.12;;
50010;SDS011;35899;50.352;19.390;2022-12-07T13:47:34;32.53;;;20.20;;
50010;SDS011;35899;50.352;19.390;2022-12-07T13:50:24;37.80;;;19.02;;
50010;SDS011;35899;50.352;19.390;2022-12-07T13:52:56;72.62;;;29.52;;
50010;SDS011;35899;50.352;19.390;2022-12-07T13:55:26;40.63;;;20.43;;
50010;SDS011;35899;50.352;19.390;2022-12-07T13:57:54;43.60;;;20.65;;
50010;SDS011;35899;50.352;19.390;2022-12-07T14:00:26;37.13;;;19.57;;
50010;SDS011;35899;50.352;19.390;2022-12-07T14:05:33;38.75;;;19.55;;
50010;SDS011;35899;50.352;19.390;2022-12-07T14:08:02;46.13;;;20.60;;
50010;SDS011;35899;50.352;19.390;2022-12-07T14:10:34;36.58;;;19.48;;
50010;SDS011;35899;50.352;19.390;2022-12-07T14:16:28;45.00;;;21.10;;
50010;SDS011;35899;50.352;19.390;2022-12-07T14:18:58;39.63;;;19.62;;
50010;SDS011;35899;50.352;19.390;2022-12-07T14:21:29;44.08;;;21.48;;
50010;SDS011;35899;50.352;19.390;2022-12-07T14:24:07;45.10;;;21.73;;
50010;SDS011;35899;50.352;19.390;2022-12-07T14:26:34;144.65;;;44.23;;
50010;SDS011;35899;50.352;19.390;2022-12-07T14:29:20;99.47;;;37.65;;
50010;SDS011;35899;50.352;19.390;2022-12-07T14:37:38;53.80;;;29.48;;
50010;SDS011;35899;50.352;19.390;2022-12-07T14:40:07;41.63;;;22.07;;
50010;SDS011;35899;50.352;19.390;2022-12-07T14:42:37;89.55;;;38.17;;
50010;SDS011;35899;50.352;19.390;2022-12-07T14:45:05;40.65;;;21.42;;
50010;SDS011;35899;50.352;19.390;2022-12-07T14:47:39;36.58;;;18.75;;
50010;SDS011;35899;50.352;19.390;2022-12-07T14:50:05;149.57;;;56.30;;
50010;SDS011;35899;50.352;19.390;2022-12-07T14:52:34;83.03;;;33.33;;
50010;SDS011;35899;50.352;19.390;2022-12-07T14:55:00;118.47;;;45.55;;
50010;SDS011;35899;50.352;19.390;2022-12-07T14:57:27;61.65;;;26.93;;
50010;SDS011;35899;50.352;19.390;2022-12-07T14:59:53;126.07;;;46.80;;
50010;SDS011;35899;50.352;19.390;2022-12-07T15:02:20;163.55;;;57.62;;
50010;SDS011;35899;50.352;19.390;2022-12-07T15:04:48;325.40;;;108.92;;
50010;SDS011;35899;50.352;19.390;2022-12-07T15:07:15;225.80;;;91.12;;
50010;SDS011;35899;50.352;19.390;2022-12-07T15:09:47;119.45;;;49.42;;
50010;SDS011;35899;50.352;19.390;2022-12-07T15:12:14;68.55;;;31.75;;
50010;SDS011;35899;50.352;19.390;2022-12-07T15:14:40;77.42;;;36.15;;
50010;SDS011;35899;50.352;19.390;2022-12-07T15:17:09;60.23;;;29.40;;
50010;SDS011;35899;50.352;19.390;2022-12-07T15:19:37;46.00;;;24.20;;
50010;SDS011;35899;50.352;19.390;2022-12-07T15:22:04;60.98;;;29.87;;
50010;SDS011;35899;50.352;19.390;2022-12-07T15:24:30;71.72;;;36.40;;
50010;SDS011;35899;50.352;19.390;2022-12-07T15:26:57;115.82;;;53.15;;
50010;SDS011;35899;50.352;19.390;2022-12-07T15:29:23;179.03;;;84.00;;
50010;SDS011;35899;50.352;19.390;2022-12-07T15:31:51;106.92;;;50.92;;
50010;SDS011;35899;50.352;19.390;2022-12-07T15:34:18;128.75;;;45.20;;
50010;SDS011;35899;50.352;19.390;2022-12-07T15:36:48;111.35;;;51.23;;
50010;SDS011;35899;50.352;19.390;2022-12-07T15:39:14;131.95;;;59.08;;
50010;SDS011;35899;50.352;19.390;2022-12-07T15:41:41;119.57;;;52.88;;
50010;SDS011;35899;50.352;19.390;2022-12-07T15:44:10;148.93;;;66.02;;
50010;SDS011;35899;50.352;19.390;2022-12-07T15:46:40;69.70;;;35.25;;
50010;SDS011;35899;50.352;19.390;2022-12-07T15:49:11;121.02;;;44.88;;
50010;SDS011;35899;50.352;19.390;2022-12-07T15:51:42;312.48;;;128.18;;
50010;SDS011;35899;50.352;19.390;2022-12-07T15:54:20;141.68;;;58.78;;
50010;SDS011;35899;50.352;19.390;2022-12-07T15:56:50;116.05;;;52.98;;
50010;SDS011;35899;50.352;19.390;2022-12-07T15:59:17;110.03;;;48.87;;
50010;SDS011;35899;50.352;19.390;2022-12-07T16:01:43;96.72;;;47.45;;
50010;SDS011;35899;50.352;19.390;2022-12-07T16:04:10;64.72;;;31.10;;
50010;SDS011;35899;50.352;19.390;2022-12-07T16:06:37;166.65;;;53.42;;
50010;SDS011;35899;50.352;19.390;2022-12-07T16:09:03;81.45;;;34.45;;
50010;SDS011;35899;50.352;19.390;2022-12-07T16:11:31;74.53;;;35.00;;
50010;SDS011;35899;50.352;19.390;2022-12-07T16:13:57;63.33;;;30.70;;
50010;SDS011;35899;50.352;19.390;2022-12-07T16:16:24;71.40;;;33.28;;
50010;SDS011;35899;50.352;19.390;2022-12-07T16:18:51;100.20;;;43.02;;
50010;SDS011;35899;50.352;19.390;2022-12-07T16:21:18;67.82;;;32.58;;
50010;SDS011;35899;50.352;19.390;2022-12-07T16:23:45;88.15;;;40.38;;
50010;SDS011;35899;50.352;19.390;2022-12-07T16:26:16;90.15;;;44.35;;
50010;SDS011;35899;50.352;19.390;2022-12-07T16:31:14;51.25;;;25.88;;
50010;SDS011;35899;50.352;19.390;2022-12-07T16:33:43;53.42;;;27.45;;
50010;SDS011;35899;50.352;19.390;2022-12-07T16:36:11;59.45;;;27.87;;
50010;SDS011;35899;50.352;19.390;2022-12-07T16:38:39;53.10;;;26.17;;
50010;SDS011;35899;50.352;19.390;2022-12-07T16:41:05;60.70;;;29.60;;
50010;SDS011;35899;50.352;19.390;2022-12-07T16:43:33;52.58;;;26.40;;
50010;SDS011;35899;50.352;19.390;2022-12-07T16:46:00;45.08;;;22.45;;
50010;SDS011;35899;50.352;19.390;2022-12-07T16:48:27;47.05;;;23.22;;
50010;SDS011;35899;50.352;19.390;2022-12-07T16:50:54;38.13;;;20.35;;
50010;SDS011;35899;50.352;19.390;2022-12-07T16:53:21;55.83;;;27.82;;
50010;SDS011;35899;50.352;19.390;2022-12-07T16:55:49;48.50;;;25.32;;
50010;SDS011;35899;50.352;19.390;2022-12-07T16:58:16;65.05;;;32.05;;
50010;SDS011;35899;50.352;19.390;2022-12-07T17:00:44;43.83;;;24.05;;